Time;durP1;ratioP1;P1;durP2;ratioP2;P2;SDS_P1;SDS_P2;PMS_P1;PMS_P2;Temp;Humidity;BMP_temperature;BMP_pressure;BME280_temperature;BME280_humidity;BME280_pressure;Samples;Min_cycle;Max_cycle;Signal;HPM_P1;HPM_P2
2022/04/28 00:02:10;;;;;;;3.90;1.20;;;;;;;8.06;56.64;101662.66;5099137;28;20039;-65
2022/04/28 00:04:36;;;;;;;3.60;1.00;;;;;;;8.61;54.85;101670.97;5099640;28;20460;-67
2022/04/28 00:07:01;;;;;;;3.42;1.17;;;;;;;8.76;54.22;101661.47;5095545;28;20459;-67
2022/04/28 00:09:27;;;;;;;3.38;1.10;;;;;;;8.80;53.90;101658.88;5094868;28;20123;-65
2022/04/28 00:11:53;;;;;;;3.08;1.17;;;;;;;8.88;53.60;101653.69;5093755;28;20497;-66
2022/04/28 00:14:18;;;;;;;4.22;1.00;;;;;;;8.88;53.49;101658.91;5095503;28;20027;-67
2022/04/28 00:16:44;;;;;;;2.15;0.93;;;;;;;9.00;52.99;101645.88;5094618;28;20396;-66
2022/04/28 00:19:09;;;;;;;2.67;1.02;;;;;;;9.03;52.81;101647.66;5099220;28;20024;-66
2022/04/28 00:21:35;;;;;;;1.60;0.60;;;;;;;9.03;52.45;101638.03;5077725;28;20047;-67
2022/04/28 00:24:00;;;;;;;3.05;0.75;;;;;;;9.08;52.25;101632.81;5099562;28;20036;-67
2022/04/28 00:26:26;;;;;;;2.83;0.95;;;;;;;9.06;51.90;101635.44;5095922;28;20082;-67
2022/04/28 00:28:51;;;;;;;3.13;0.90;;;;;;;8.96;51.43;101635.38;5095271;28;20057;-68
2022/04/28 00:31:16;;;;;;;3.25;1.13;;;;;;;8.78;50.91;101626.56;5093610;28;20042;-65
2022/04/28 00:33:42;;;;;;;3.00;0.80;;;;;;;8.87;51.28;101631.84;5093924;28;20040;-67
2022/04/28 00:36:08;;;;;;;3.67;0.85;;;;;;;8.72;51.31;101637.00;5099666;28;20039;-68
2022/04/28 00:38:33;;;;;;;2.20;0.85;;;;;;;8.67;50.96;101645.69;5094244;28;20115;-67
2022/04/28 00:41:00;;;;;;;1.70;0.60;;;;;;;8.73;50.93;101645.72;5099812;28;20115;-67
2022/04/28 00:43:28;;;;;;;1.75;0.70;;;;;;;8.69;50.80;101639.59;5076977;28;20047;-68
2022/04/28 00:45:56;;;;;;;8.73;0.90;;;;;;;8.54;50.85;101648.25;5094089;28;20081;-66
2022/04/28 00:51:07;;;;;;;2.15;0.90;;;;;;;8.60;49.82;101645.66;5095206;28;20414;-66
2022/04/28 00:53:43;;;;;;;2.45;0.80;;;;;;;8.62;50.04;101645.69;5093851;28;20481;-66
2022/04/28 00:56:12;;;;;;;2.30;0.80;;;;;;;8.42;49.74;101652.50;5094765;28;20031;-68
2022/04/28 00:58:40;;;;;;;2.55;0.95;;;;;;;8.34;50.08;101650.69;5094714;28;20039;-69
2022/04/28 01:01:05;;;;;;;2.83;0.80;;;;;;;8.28;49.95;101653.25;5094584;28;20124;-67
2022/04/28 01:03:31;;;;;;;3.20;0.70;;;;;;;8.22;49.87;101655.81;5075711;28;20135;-68
2022/04/28 01:05:58;;;;;;;3.10;0.60;;;;;;;8.24;50.10;101650.59;5097829;28;20028;-66
2022/04/28 01:08:24;;;;;;;2.17;0.60;;;;;;;8.26;49.93;101643.59;5093403;28;20040;-68
2022/04/28 01:10:51;;;;;;;3.13;0.60;;;;;;;8.37;49.64;101639.38;5094510;28;20054;-66
2022/04/28 01:13:17;;;;;;;1.90;0.75;;;;;;;8.50;49.42;101637.75;5094655;28;20061;-66
2022/04/28 01:15:44;;;;;;;3.33;0.88;;;;;;;8.58;49.08;101629.06;5094586;28;20059;-66
2022/04/28 01:18:09;;;;;;;1.92;0.70;;;;;;;8.57;49.04;101635.13;5092496;28;20152;-68
2022/04/28 01:20:35;;;;;;;2.42;0.80;;;;;;;8.59;48.99;101646.53;5097582;28;20558;-68
2022/04/28 01:23:00;;;;;;;2.53;0.68;;;;;;;8.41;49.34;101651.63;5093300;28;20551;-67
2022/04/28 01:25:26;;;;;;;1.90;0.63;;;;;;;8.62;49.03;101643.06;5096954;28;20118;-67
2022/04/28 01:27:51;;;;;;;1.45;0.60;;;;;;;8.40;49.56;101642.00;5075270;28;20047;-67
2022/04/28 01:30:17;;;;;;;2.55;0.57;;;;;;;8.59;49.02;101632.56;5094018;28;20441;-67
2022/04/28 01:32:43;;;;;;;2.10;0.70;;;;;;;8.47;49.46;101633.34;5093731;28;20081;-68
2022/04/28 01:35:09;;;;;;;2.35;0.60;;;;;;;8.71;48.76;101631.75;5091242;28;20032;-69
2022/04/28 01:37:34;;;;;;;1.33;0.60;;;;;;;8.88;48.44;101624.84;5094044;28;20040;-68
2022/04/28 01:40:00;;;;;;;1.65;0.70;;;;;;;8.84;48.50;101623.94;5093740;28;20098;-67
2022/04/28 01:42:26;;;;;;;1.00;0.60;;;;;;;8.90;48.40;101628.38;5092921;28;20089;-68
2022/04/28 01:44:51;;;;;;;2.28;0.60;;;;;;;8.52;49.62;101622.88;5095056;28;20040;-67
2022/04/28 01:47:17;;;;;;;2.55;0.63;;;;;;;8.82;49.21;101615.22;5094630;28;20467;-68
2022/04/28 01:49:44;;;;;;;1.55;0.52;;;;;;;8.96;49.49;101612.66;5092148;28;20071;-68
2022/04/28 01:54:59;;;;;;;1.92;0.50;;;;;;;9.13;49.87;101604.84;5093810;28;20460;-67
2022/04/28 01:57:30;;;;;;;0.98;0.60;;;;;;;9.10;50.92;101608.34;5093030;28;20444;-67
2022/04/28 01:59:58;;;;;;;3.00;0.65;;;;;;;9.09;51.43;101601.34;5101185;28;20028;-67
2022/04/28 02:02:24;;;;;;;2.08;0.65;;;;;;;9.02;51.67;101604.81;5088863;28;20528;-68
2022/04/28 02:04:50;;;;;;;1.35;0.50;;;;;;;8.99;52.16;101606.56;5072606;28;20048;-67
2022/04/28 02:07:16;;;;;;;1.60;0.70;;;;;;;8.92;52.73;101605.66;5093254;28;20060;-68
2022/04/28 02:09:45;;;;;;;2.50;0.70;;;;;;;8.84;53.58;101600.38;5098713;28;20088;-68
2022/04/28 02:12:14;;;;;;;2.42;0.93;;;;;;;8.38;54.59;101602.72;5092513;28;20059;-66
2022/04/28 02:14:41;;;;;;;2.67;0.80;;;;;;;8.21;55.56;101600.81;5097012;28;20058;-67
2022/04/28 02:17:06;;;;;;;4.90;2.05;;;;;;;8.17;55.79;101604.28;5090096;28;20040;-64
2022/04/28 02:19:32;;;;;;;4.65;2.33;;;;;;;8.11;56.61;101603.38;5096051;28;20027;-67
2022/04/28 02:21:58;;;;;;;2.95;1.35;;;;;;;7.98;57.28;101601.53;5090947;28;20058;-67
2022/04/28 02:24:24;;;;;;;2.03;0.98;;;;;;;8.00;57.05;101604.13;5093538;28;20085;-68
2022/04/28 02:26:49;;;;;;;2.22;0.93;;;;;;;7.89;57.66;101596.19;5091959;28;20063;-66
2022/04/28 02:29:15;;;;;;;3.78;1.13;;;;;;;7.76;58.70;101599.56;5091037;28;20036;-68
2022/04/28 02:31:41;;;;;;;2.03;0.90;;;;;;;7.80;58.59;101603.97;5096697;28;20440;-68
2022/04/28 02:34:07;;;;;;;2.38;0.70;;;;;;;7.87;58.32;101592.69;5092216;28;20116;-67
2022/04/28 02:36:32;;;;;;;1.90;0.80;;;;;;;7.92;58.21;101595.34;5092096;28;20493;-68
2022/04/28 02:38:57;;;;;;;1.98;0.80;;;;;;;7.84;58.75;101593.53;5074909;28;20070;-67
2022/04/28 02:41:23;;;;;;;4.95;1.17;;;;;;;7.82;59.04;101587.44;5089249;28;20089;-67
2022/04/28 02:43:49;;;;;;;2.13;0.95;;;;;;;7.84;58.95;101587.44;5090151;28;20046;-67
2022/04/28 02:46:15;;;;;;;3.10;0.93;;;;;;;7.76;59.37;101589.09;5090649;28;20044;-69
2022/04/28 02:48:40;;;;;;;5.35;1.15;;;;;;;7.62;59.98;101589.84;5093377;28;20463;-67
2022/04/28 02:51:06;;;;;;;3.17;1.00;;;;;;;7.49;60.57;101593.19;5074375;28;20035;-67
2022/04/28 02:53:32;;;;;;;3.45;0.90;;;;;;;7.50;60.46;101589.75;5092955;28;20032;-69
2022/04/28 02:55:57;;;;;;;2.70;1.15;;;;;;;7.46;60.92;101595.81;5091320;28;20040;-68
2022/04/28 02:58:23;;;;;;;2.58;1.10;;;;;;;7.42;61.13;101588.78;5090023;28;20080;-69
2022/04/28 03:00:48;;;;;;;2.10;1.00;;;;;;;7.48;60.75;101594.06;5092653;28;20047;-68
2022/04/28 03:03:14;;;;;;;1.77;0.70;;;;;;;7.59;60.51;101592.44;5077836;28;20503;-68
2022/04/28 03:11:07;;;;;;;4.38;1.40;;;;;;;7.63;61.04;101606.44;5092415;28;20043;-67
2022/04/28 03:13:32;;;;;;;2.40;1.10;;;;;;;7.97;59.86;101610.22;5074747;28;20391;-68
2022/04/28 03:15:59;;;;;;;1.75;1.10;;;;;;;7.87;60.48;101601.41;5092143;28;20058;-67
2022/04/28 03:18:25;;;;;;;1.92;0.85;;;;;;;7.82;60.45;101605.75;5085735;28;20028;-67
2022/04/28 03:20:50;;;;;;;3.22;1.30;;;;;;;7.64;61.07;101605.56;5091013;28;20106;-68
2022/04/28 03:23:15;;;;;;;4.57;1.33;;;;;;;7.83;60.64;101610.09;5073644;28;20032;-68
2022/04/28 03:25:41;;;;;;;4.00;1.25;;;;;;;7.84;61.04;101610.97;5078301;28;20042;-68
2022/04/28 03:28:08;;;;;;;3.35;0.90;;;;;;;7.48;62.66;101617.59;5096804;28;20048;-68
2022/04/28 03:30:34;;;;;;;2.25;1.02;;;;;;;7.42;63.02;101609.72;5099407;28;20031;-68
2022/04/28 03:33:00;;;;;;;3.35;0.98;;;;;;;7.47;62.84;101612.38;5098166;28;20096;-67
2022/04/28 03:35:26;;;;;;;3.97;1.30;;;;;;;7.61;63.12;101606.41;5096676;28;20039;-68
2022/04/28 03:37:52;;;;;;;2.50;1.05;;;;;;;8.02;61.15;101605.91;5096880;28;20044;-66
2022/04/28 03:40:17;;;;;;;2.30;0.90;;;;;;;8.04;61.46;101617.25;5095304;28;20028;-67
2022/04/28 03:42:44;;;;;;;2.38;1.20;;;;;;;8.09;61.27;101615.56;5096533;28;20040;-67
2022/04/28 03:45:10;;;;;;;3.63;1.58;;;;;;;8.08;61.45;101616.44;5094165;28;20044;-67
2022/04/28 03:47:36;;;;;;;3.50;1.20;;;;;;;8.02;61.76;101608.53;5096610;28;20179;-70
2022/04/28 03:50:04;;;;;;;2.50;1.35;;;;;;;7.72;62.76;101623.94;5095474;28;20451;-68
2022/04/28 03:52:29;;;;;;;5.75;1.70;;;;;;;7.81;63.32;101630.13;5100980;28;20475;-69
2022/04/28 03:54:55;;;;;;;2.60;1.55;;;;;;;7.90;62.54;101627.63;5096616;28;20046;-69
2022/04/28 03:57:20;;;;;;;3.20;1.65;;;;;;;7.98;62.35;101629.41;5077512;28;20032;-69
2022/04/28 03:59:46;;;;;;;2.50;1.30;;;;;;;8.03;62.34;101626.00;5099650;28;20047;-69
2022/04/28 04:02:11;;;;;;;2.72;1.58;;;;;;;8.23;61.80;101627.91;5094202;28;20114;-69
2022/04/28 04:04:37;;;;;;;3.22;1.90;;;;;;;8.32;61.69;101628.81;5074266;28;20123;-69
2022/04/28 04:07:03;;;;;;;4.43;2.00;;;;;;;8.37;61.81;101627.16;5093337;28;20115;-69
2022/04/28 04:09:28;;;;;;;3.28;1.58;;;;;;;8.41;61.64;101635.91;5090015;28;20036;-68
2022/04/28 04:11:54;;;;;;;5.10;2.10;;;;;;;8.44;61.58;101633.31;5094407;28;20395;-68
2022/04/28 04:14:19;;;;;;;2.53;1.85;;;;;;;8.54;61.22;101629.03;5078651;28;20127;-67
2022/04/28 04:16:45;;;;;;;2.38;1.80;;;;;;;8.67;60.92;101637.84;5096467;28;20032;-68
2022/04/28 04:19:10;;;;;;;2.70;1.80;;;;;;;8.82;60.64;101643.19;5108136;28;20136;-68
2022/04/28 04:21:36;;;;;;;3.70;1.85;;;;;;;8.97;60.27;101640.59;5106196;28;20040;-68
2022/04/28 04:24:01;;;;;;;5.30;1.85;;;;;;;8.87;60.50;101644.06;5095007;28;20383;-68
2022/04/28 04:26:27;;;;;;;3.55;2.20;;;;;;;8.94;60.27;101653.72;5113115;28;20377;-68
2022/04/28 04:28:52;;;;;;;4.15;2.20;;;;;;;8.81;60.73;101647.50;5097252;28;20035;-68
2022/04/28 04:34:01;;;;;;;3.50;1.90;;;;;;;8.74;61.14;101647.50;5095502;28;20047;-69
2022/04/28 04:36:27;;;;;;;4.47;2.35;;;;;;;8.73;61.29;101658.81;5074868;28;20032;-68
2022/04/28 04:38:52;;;;;;;3.80;1.70;;;;;;;8.75;61.50;101657.09;5107689;28;20415;-69
2022/04/28 04:41:18;;;;;;;3.85;1.83;;;;;;;8.59;61.96;101657.00;5087095;28;20063;-69
2022/04/28 04:43:43;;;;;;;4.55;2.00;;;;;;;8.61;61.92;101662.25;5090369;28;20395;-68
2022/04/28 04:46:09;;;;;;;7.38;2.92;;;;;;;8.54;62.17;101656.09;5110105;28;20043;-69
2022/04/28 04:48:34;;;;;;;3.85;2.10;;;;;;;8.59;61.86;101667.47;5096126;28;20047;-69
2022/04/28 04:51:02;;;;;;;3.92;2.28;;;;;;;8.65;61.44;101669.25;5114213;28;20042;-69
2022/04/28 04:53:27;;;;;;;3.92;1.67;;;;;;;8.71;61.26;101665.81;5101291;28;20032;-68
2022/04/28 04:55:52;;;;;;;6.13;1.55;;;;;;;8.80;60.96;101663.25;5107821;28;20436;-67
2022/04/28 04:58:18;;;;;;;3.30;1.45;;;;;;;8.86;60.90;101661.53;5113786;27;20376;-67
2022/04/28 05:00:43;;;;;;;2.92;1.33;;;;;;;8.82;61.22;101665.00;5097445;28;20044;-67
2022/04/28 05:03:09;;;;;;;4.50;1.50;;;;;;;8.88;61.00;101666.78;5094498;28;20090;-66
2022/04/28 05:05:34;;;;;;;2.30;1.15;;;;;;;8.92;61.03;101663.31;5111896;28;20039;-67
2022/04/28 05:08:00;;;;;;;4.38;1.38;;;;;;;8.75;61.46;101664.97;5101036;28;20036;-67
2022/04/28 05:10:25;;;;;;;2.63;1.30;;;;;;;8.69;61.66;101655.31;5110039;28;20035;-68
2022/04/28 05:12:51;;;;;;;2.33;1.35;;;;;;;8.74;61.73;101657.97;5115741;28;20027;-66
2022/04/28 05:15:16;;;;;;;2.95;1.42;;;;;;;9.20;60.59;101663.44;5099217;28;20097;-66
2022/04/28 05:17:42;;;;;;;6.40;1.75;;;;;;;9.35;60.19;101667.00;5094921;28;20049;-66
2022/04/28 05:20:07;;;;;;;4.15;1.70;;;;;;;9.48;59.57;101662.69;5074790;28;20040;-66
2022/04/28 05:22:33;;;;;;;4.68;1.88;;;;;;;9.55;59.39;101667.09;5094347;28;20456;-67
2022/04/28 05:24:59;;;;;;;8.10;4.30;;;;;;;9.67;59.25;101673.25;5076935;28;20036;-68
2022/04/28 05:27:25;;;;;;;6.03;3.22;;;;;;;9.66;59.11;101666.25;5096847;28;20036;-66
2022/04/28 05:29:50;;;;;;;6.25;2.70;;;;;;;9.78;58.74;101663.66;5091375;28;20043;-67
2022/04/28 05:32:16;;;;;;;4.38;2.10;;;;;;;9.80;58.47;101668.00;5092984;28;20040;-69
2022/04/28 05:34:43;;;;;;;4.30;2.20;;;;;;;9.94;58.19;101665.44;5101496;28;20063;-67
2022/04/28 05:37:12;;;;;;;5.55;2.83;;;;;;;10.13;57.55;101674.19;5060326;28;20032;-67
2022/04/28 05:39:41;;;;;;;4.50;2.25;;;;;;;10.24;57.16;101668.94;5074844;28;20035;-67
2022/04/28 05:42:07;;;;;;;5.40;2.10;;;;;;;10.28;57.04;101668.09;5094238;28;20044;-68
2022/04/28 05:47:19;;;;;;;6.30;3.35;;;;;;;10.33;56.93;101669.88;5074619;28;20039;-67
2022/04/28 05:49:46;;;;;;;4.32;2.13;;;;;;;10.26;56.72;101673.38;5074565;28;20032;-67
2022/04/28 05:52:12;;;;;;;4.65;2.15;;;;;;;10.26;57.15;101675.13;5074214;28;20459;-67
2022/04/28 05:54:39;;;;;;;4.30;1.38;;;;;;;10.38;56.75;101677.75;5091100;28;20032;-66
2022/04/28 05:57:05;;;;;;;5.32;1.23;;;;;;;10.46;56.39;101680.38;5076938;28;20032;-67
2022/04/28 05:59:30;;;;;;;1.70;1.00;;;;;;;10.44;56.56;101677.72;5093578;28;20032;-66
2022/04/28 06:01:56;;;;;;;3.53;1.10;;;;;;;10.38;56.70;101685.63;5094883;28;20179;-67
2022/04/28 06:04:22;;;;;;;1.90;0.90;;;;;;;10.51;56.10;101681.22;5060263;28;20131;-67
2022/04/28 06:06:47;;;;;;;1.60;0.77;;;;;;;10.47;56.18;101688.25;5093792;28;20119;-67
2022/04/28 06:09:13;;;;;;;2.50;0.80;;;;;;;10.51;56.19;101689.13;5092529;28;20038;-66
2022/04/28 06:11:38;;;;;;;6.25;2.30;;;;;;;10.44;56.13;101692.63;5110617;28;20054;-67
2022/04/28 06:14:03;;;;;;;32.42;13.25;;;;;;;10.53;55.69;101697.84;5113850;28;20485;-68
2022/04/28 06:16:29;;;;;;;7.45;2.95;;;;;;;10.41;56.06;101696.09;5110527;28;20028;-67
2022/04/28 06:18:54;;;;;;;5.65;2.70;;;;;;;10.51;55.61;101697.88;5113250;28;20457;-67
2022/04/28 06:21:20;;;;;;;6.18;2.03;;;;;;;10.57;55.55;101700.50;5111432;28;20462;-68
2022/04/28 06:23:45;;;;;;;4.63;1.70;;;;;;;10.42;55.90;101697.88;5100721;28;20399;-68
2022/04/28 06:26:11;;;;;;;3.85;1.30;;;;;;;10.67;55.54;101695.25;5092718;28;20493;-67
2022/04/28 06:28:36;;;;;;;4.13;1.20;;;;;;;10.85;55.31;101703.06;5071267;28;20032;-66
2022/04/28 06:31:02;;;;;;;3.70;1.20;;;;;;;10.98;54.95;101696.94;5092847;28;20032;-68
2022/04/28 06:33:27;;;;;;;2.28;0.90;;;;;;;11.04;54.69;101701.28;5071085;28;20069;-67
2022/04/28 06:35:54;;;;;;;1.58;0.93;;;;;;;11.15;54.42;101703.91;5083464;28;20028;-67
2022/04/28 06:38:19;;;;;;;2.10;1.00;;;;;;;11.28;54.07;101701.22;5083943;28;20036;-66
2022/04/28 06:40:45;;;;;;;3.85;1.00;;;;;;;11.47;53.72;101707.28;5083995;28;20491;-63
2022/04/28 06:43:10;;;;;;;4.03;1.40;;;;;;;11.64;53.33;101694.03;5089314;28;20039;-67
2022/04/28 06:45:37;;;;;;;4.72;0.80;;;;;;;11.79;52.57;101703.63;5091280;28;20036;-66
2022/04/28 06:48:03;;;;;;;2.58;1.00;;;;;;;11.90;51.88;101711.50;5092467;28;20494;-67
2022/04/28 06:50:28;;;;;;;1.58;0.85;;;;;;;11.99;51.89;101709.69;5076369;28;20039;-67
2022/04/28 06:52:54;;;;;;;2.92;0.90;;;;;;;12.00;51.83;101708.78;5090439;28;20044;-68
2022/04/28 06:55:19;;;;;;;2.42;1.00;;;;;;;11.95;51.54;101704.44;5090202;28;20452;-69
2022/04/28 06:57:45;;;;;;;2.35;1.08;;;;;;;12.11;51.46;101707.84;5075702;28;20060;-68
2022/04/28 07:00:11;;;;;;;2.25;0.93;;;;;;;12.22;50.99;101713.94;5093627;28;20429;-70
2022/04/28 07:02:36;;;;;;;1.85;0.73;;;;;;;12.26;50.78;101708.63;5074782;28;20455;-69
2022/04/28 07:05:02;;;;;;;1.65;1.00;;;;;;;12.17;50.49;101713.06;5091474;28;20135;-70
2022/04/28 07:07:28;;;;;;;1.58;1.00;;;;;;;12.16;50.04;101703.41;5086941;28;20118;-70
2022/04/28 07:09:53;;;;;;;2.58;1.10;;;;;;;12.18;50.43;101709.56;5084870;28;20062;-68
2022/04/28 07:12:18;;;;;;;2.92;0.90;;;;;;;12.32;50.55;101720.84;5092135;28;20391;-68
2022/04/28 07:14:44;;;;;;;2.40;1.27;;;;;;;12.33;50.76;101720.88;5070995;28;20404;-69
2022/04/28 07:17:10;;;;;;;2.60;1.20;;;;;;;12.49;50.40;101711.06;5088222;28;20035;-69
2022/04/28 07:19:36;;;;;;;1.90;1.10;;;;;;;12.65;50.10;101717.09;5092050;28;20073;-69
2022/04/28 07:22:05;;;;;;;4.18;1.65;;;;;;;12.75;49.88;101709.94;5091874;28;20036;-69
2022/04/28 07:24:31;;;;;;;3.20;1.45;;;;;;;12.85;49.53;101716.91;5090859;28;20055;-68
2022/04/28 07:26:56;;;;;;;3.90;1.45;;;;;;;13.05;49.21;101711.44;5095692;28;20028;-69
2022/04/28 07:29:22;;;;;;;3.53;1.30;;;;;;;13.12;49.00;101714.84;5090030;28;20035;-67
2022/04/28 07:31:47;;;;;;;2.22;1.02;;;;;;;13.09;48.53;101707.00;5085499;28;20467;-67
2022/04/28 07:34:13;;;;;;;3.33;0.98;;;;;;;13.00;48.70;101708.81;5086910;28;20123;-68
2022/04/28 07:36:38;;;;;;;2.92;1.08;;;;;;;12.96;48.58;101717.66;5091748;28;20051;-67
2022/04/28 07:39:04;;;;;;;4.70;1.20;;;;;;;12.97;48.42;101719.41;5091138;28;20074;-69
2022/04/28 07:41:29;;;;;;;2.85;1.20;;;;;;;12.98;47.90;101718.53;5091952;28;20028;-68
2022/04/28 07:43:55;;;;;;;2.15;0.90;;;;;;;13.03;48.01;101723.75;5092030;28;20467;-68
2022/04/28 07:46:20;;;;;;;1.23;0.88;;;;;;;13.12;48.17;101720.13;5075138;28;20081;-68
2022/04/28 07:48:46;;;;;;;3.25;0.93;;;;;;;13.23;47.72;101723.56;5092007;28;20503;-68
2022/04/28 07:51:11;;;;;;;1.20;0.75;;;;;;;13.41;47.37;101720.72;5092939;28;20478;-69
2022/04/28 07:53:38;;;;;;;2.38;0.98;;;;;;;13.62;46.84;101722.22;5091871;28;20502;-68
2022/04/28 07:56:18;;;;;;;3.08;1.23;;;;;;;13.79;46.63;101720.22;5093196;28;20139;-69
2022/04/28 07:58:44;;;;;;;2.92;1.10;;;;;;;13.83;46.47;101723.69;5093043;28;20028;-68
2022/04/28 08:01:11;;;;;;;2.40;0.90;;;;;;;13.92;46.27;101726.19;5092893;28;20032;-69
2022/04/28 08:03:37;;;;;;;4.30;1.00;;;;;;;13.87;46.05;101724.50;5092790;28;20056;-69
2022/04/28 08:06:03;;;;;;;1.42;1.00;;;;;;;13.69;46.09;101723.88;5092204;28;20040;-69
2022/04/28 08:08:29;;;;;;;3.45;1.40;;;;;;;13.67;46.60;101727.44;5093260;28;20035;-68
2022/04/28 08:10:56;;;;;;;2.05;0.95;;;;;;;13.83;46.08;101726.31;5090101;28;20490;-66
2022/04/28 08:13:21;;;;;;;6.13;1.40;;;;;;;13.96;46.08;101727.91;5091914;28;20118;-69
2022/04/28 08:15:47;;;;;;;3.40;1.20;;;;;;;13.94;45.51;101734.97;5094436;28;20042;-69
2022/04/28 08:18:12;;;;;;;2.28;1.00;;;;;;;14.10;45.44;101730.34;5059898;28;20036;-69
2022/04/28 08:20:41;;;;;;;3.50;1.13;;;;;;;14.25;44.96;101734.53;5086353;28;20067;-70
2022/04/28 08:23:08;;;;;;;2.15;1.20;;;;;;;14.16;45.50;101730.28;5080059;28;20031;-69
2022/04/28 08:25:33;;;;;;;3.83;1.48;;;;;;;13.95;45.52;101734.06;5078891;28;20040;-69
2022/04/28 08:27:59;;;;;;;4.45;1.35;;;;;;;13.99;45.09;101733.13;5098446;28;20031;-68
2022/04/28 08:30:24;;;;;;;2.22;1.10;;;;;;;14.03;45.14;101728.69;5105329;28;20808;-69
2022/04/28 08:32:50;;;;;;;2.88;1.15;;;;;;;14.07;44.78;101719.81;5110243;28;20493;-69
2022/04/28 08:35:15;;;;;;;2.67;1.55;;;;;;;13.96;44.82;101714.72;5108680;28;20042;-69
2022/04/28 08:37:41;;;;;;;3.00;1.60;;;;;;;14.06;45.20;101726.00;5098156;28;20034;-68
2022/04/28 08:40:07;;;;;;;4.47;1.50;;;;;;;13.91;45.49;101716.53;5107914;28;20044;-68
2022/04/28 08:42:38;;;;;;;2.03;1.60;;;;;;;14.10;45.35;101719.78;5097622;28;20072;-68
2022/04/28 08:45:04;;;;;;;2.20;1.23;;;;;;;14.24;44.69;101722.19;5088058;28;20454;-68
2022/04/28 08:47:31;;;;;;;2.05;1.30;;;;;;;14.23;44.64;101725.75;5103655;28;20056;-69
2022/04/28 08:49:56;;;;;;;3.05;1.30;;;;;;;14.13;44.96;101722.38;5097734;28;20074;-70
2022/04/28 08:52:24;;;;;;;3.17;1.70;;;;;;;14.20;45.04;101721.41;5110269;28;20059;-67
2022/04/28 08:54:53;;;;;;;2.22;1.15;;;;;;;14.58;44.47;101716.41;5078111;28;20541;-69
2022/04/28 08:57:18;;;;;;;2.70;1.20;;;;;;;14.91;43.81;101720.22;5094083;28;20070;-70
2022/04/28 08:59:45;;;;;;;2.33;1.10;;;;;;;15.11;43.45;101707.47;5093818;28;20043;-68
2022/04/28 09:02:11;;;;;;;2.85;1.40;;;;;;;15.32;43.49;101716.81;5107553;28;20479;-68
2022/04/28 09:04:37;;;;;;;2.28;1.35;;;;;;;15.39;43.20;101721.03;5104679;28;20764;-68
2022/04/28 09:07:06;;;;;;;2.08;1.30;;;;;;;15.33;42.62;101710.59;5094058;28;20089;-70
2022/04/28 09:09:32;;;;;;;6.40;1.65;;;;;;;15.17;43.02;101717.09;5077006;28;20109;-68
2022/04/28 09:12:00;;;;;;;2.10;1.50;;;;;;;15.28;42.76;101715.13;5094106;28;20460;-69
2022/04/28 09:14:25;;;;;;;2.65;1.33;;;;;;;15.11;43.23;101715.41;5081315;28;20032;-68
2022/04/28 09:16:56;;;;;;;2.08;1.38;;;;;;;14.90;43.93;101716.72;5082599;28;20073;-69
2022/04/28 09:19:28;;;;;;;1.73;1.20;;;;;;;15.22;43.39;101715.22;5077334;28;20031;-69
2022/04/28 09:22:00;;;;;;;3.75;1.75;;;;;;;15.34;43.05;101720.28;5099047;28;20040;-69
2022/04/28 09:24:26;;;;;;;3.55;1.52;;;;;;;15.63;42.32;101710.84;5095064;28;20078;-69
2022/04/28 09:26:54;;;;;;;1.90;1.30;;;;;;;15.67;42.42;101708.13;5095449;28;20092;-68
2022/04/28 09:29:20;;;;;;;4.35;1.38;;;;;;;15.86;42.43;101708.59;5093610;28;20028;-68
2022/04/28 09:31:48;;;;;;;3.67;1.73;;;;;;;15.95;41.84;101712.81;5096935;28;20035;-68
2022/04/28 09:34:16;;;;;;;2.50;1.50;;;;;;;15.90;41.93;101720.00;5103489;28;20024;-68
2022/04/28 09:36:43;;;;;;;2.15;1.40;;;;;;;16.35;40.25;101725.13;5100228;28;20390;-69
2022/04/28 09:39:13;;;;;;;2.20;1.20;;;;;;;16.70;39.05;101713.63;5109653;28;20051;-69
2022/04/28 09:44:23;;;;;;;3.10;1.13;;;;;;;17.35;38.90;101718.97;5096332;28;20069;-68
2022/04/28 09:46:50;;;;;;;2.25;1.33;;;;;;;17.03;39.20;101716.34;5096854;28;20131;-69
2022/04/28 09:49:21;;;;;;;2.30;1.17;;;;;;;16.89;39.29;101709.63;5098009;28;20188;-69
2022/04/28 09:51:46;;;;;;;2.50;1.30;;;;;;;17.02;39.43;101719.91;5093483;28;20092;-68
2022/04/28 09:54:17;;;;;;;2.75;1.50;;;;;;;17.03;39.32;101719.84;5103570;28;20028;-69
2022/04/28 09:56:44;;;;;;;3.15;1.58;;;;;;;17.28;39.20;101727.19;5100960;28;20386;-69
2022/04/28 09:59:12;;;;;;;2.50;0.98;;;;;;;17.39;39.00;101720.63;5106445;28;20052;-68
2022/04/28 10:01:39;;;;;;;1.88;1.27;;;;;;;17.54;38.88;101723.75;5097461;28;20478;-69
2022/04/28 10:04:06;;;;;;;3.65;1.80;;;;;;;17.73;38.35;101716.97;5081074;28;20055;-68
2022/04/28 10:06:34;;;;;;;1.65;1.20;;;;;;;17.69;38.02;101729.50;5089780;28;20092;-70
2022/04/28 10:09:12;;;;;;;2.85;1.60;;;;;;;17.69;37.96;101718.84;5097144;28;20027;-69
2022/04/28 10:11:38;;;;;;;2.28;1.30;;;;;;;17.95;37.87;101715.44;5103549;28;20058;-67
2022/04/28 10:14:05;;;;;;;17.20;2.92;;;;;;;17.93;37.77;101721.72;5084243;28;20024;-69
2022/04/28 10:16:31;;;;;;;5.82;2.00;;;;;;;18.00;37.66;101717.09;5092504;28;20028;-69
2022/04/28 10:19:10;;;;;;;3.30;1.48;;;;;;;17.93;37.54;101714.63;5093057;28;20032;-69
2022/04/28 10:21:58;;;;;;;3.65;1.90;;;;;;;17.82;38.29;101719.38;5093536;28;20028;-69
2022/04/28 10:32:57;;;;;;;3.50;1.95;;;;;;;17.68;38.01;101713.59;5103167;28;20105;-70
2022/04/28 10:35:45;;;;;;;4.28;1.63;;;;;;;18.26;37.44;101714.44;5095901;28;20082;-68
2022/04/28 10:38:31;;;;;;;2.78;1.92;;;;;;;18.59;36.00;101708.91;5113215;28;20027;-69
2022/04/28 10:41:05;;;;;;;4.18;1.75;;;;;;;18.46;36.09;101712.00;5107240;28;20028;-69
2022/04/28 10:43:33;;;;;;;2.65;1.77;;;;;;;18.73;36.23;101714.69;5101049;28;20034;-70
2022/04/28 10:46:06;;;;;;;4.70;1.95;;;;;;;18.95;35.83;101713.03;5112465;28;20024;-68
2022/04/28 10:48:42;;;;;;;2.83;1.60;;;;;;;19.38;35.06;101708.78;5113919;28;20032;-69
2022/04/28 10:51:22;;;;;;;2.88;1.70;;;;;;;19.73;34.18;101703.94;5114426;28;20075;-70
2022/04/28 10:54:06;;;;;;;3.50;1.55;;;;;;;20.07;33.99;101707.97;5112765;28;20485;-70
2022/04/28 10:56:54;;;;;;;2.25;1.67;;;;;;;19.90;33.24;101711.28;5110366;28;20024;-68
2022/04/28 10:59:25;;;;;;;3.47;2.00;;;;;;;18.89;34.86;101707.91;5093950;28;20024;-69
2022/04/28 11:01:51;;;;;;;3.47;1.95;;;;;;;18.72;35.99;101707.63;5093464;28;20395;-67
2022/04/28 11:04:21;;;;;;;2.47;1.77;;;;;;;18.06;36.42;101701.78;5093199;28;20052;-69
2022/04/28 11:06:55;;;;;;;3.25;1.70;;;;;;;17.77;36.56;101699.19;5072135;28;20052;-70
2022/04/28 11:09:44;;;;;;;1.77;1.27;;;;;;;17.50;36.89;101693.75;5072561;28;20050;-71
2022/04/28 11:12:16;;;;;;;2.25;1.73;;;;;;;17.49;37.48;101695.53;5072123;28;20067;-70
2022/04/28 11:15:06;;;;;;;2.22;1.65;;;;;;;17.31;37.59;101701.38;5073227;28;20040;-68
2022/04/28 11:17:35;;;;;;;3.72;1.90;;;;;;;17.64;37.36;101696.00;5072016;28;20062;-69
2022/04/28 11:20:06;;;;;;;7.55;2.20;;;;;;;17.88;36.80;101702.38;5071972;28;20111;-69
2022/04/28 11:22:32;;;;;;;2.78;1.92;;;;;;;18.24;36.65;101707.47;5071902;28;20094;-69
2022/04/28 11:24:59;;;;;;;2.20;1.40;;;;;;;18.32;36.62;101700.97;5072216;28;20840;-69
2022/04/28 11:27:29;;;;;;;4.20;1.73;;;;;;;18.56;35.66;101701.06;5072017;28;20464;-69
2022/04/28 11:29:57;;;;;;;4.22;2.20;;;;;;;18.85;35.38;101698.28;5071768;28;20044;-69
2022/04/28 11:32:22;;;;;;;3.20;1.77;;;;;;;19.16;35.00;101699.84;5072992;28;20064;-67
2022/04/28 11:34:50;;;;;;;2.88;1.60;;;;;;;19.04;34.73;101708.28;5073265;28;20056;-70
2022/04/28 11:37:20;;;;;;;3.58;1.90;;;;;;;18.66;34.99;101702.47;5068465;28;20032;-68
2022/04/28 11:39:47;;;;;;;3.20;1.85;;;;;;;18.26;35.20;101714.44;5053008;28;20025;-69
2022/04/28 11:42:18;;;;;;;3.85;2.10;;;;;;;17.78;35.96;101706.22;5051228;28;20037;-71
2022/04/28 11:44:54;;;;;;;4.72;1.85;;;;;;;17.42;36.18;101707.25;5052714;28;20463;-69
2022/04/28 11:47:20;;;;;;;2.50;1.98;;;;;;;17.04;37.18;101704.81;5054295;28;20037;-69
2022/04/28 11:49:49;;;;;;;4.72;2.15;;;;;;;17.21;37.05;101713.19;5056882;28;20041;-69
2022/04/28 11:52:25;;;;;;;3.95;2.00;;;;;;;17.13;36.50;101715.19;5055916;28;20040;-69
2022/04/28 11:54:59;;;;;;;5.70;2.22;;;;;;;17.19;35.94;101701.72;5057329;28;20029;-68
2022/04/28 11:57:25;;;;;;;4.13;1.90;;;;;;;17.14;36.43;101708.94;5071232;28;20040;-68